createdAt,value
2019-01-24T00:01:25.755Z,5.16
2019-01-24T00:03:55.245Z,5.15
2019-01-24T00:06:24.760Z,5.12
2019-01-24T00:08:54.232Z,5.16
2019-01-24T00:11:23.663Z,5.18
2019-01-24T00:13:53.184Z,5.17
2019-01-24T00:16:22.690Z,5.14
2019-01-24T00:18:52.215Z,5.20
2019-01-24T00:21:21.722Z,5.15
2019-01-24T00:23:51.190Z,5.13
2019-01-24T00:26:20.616Z,5.12
2019-01-24T00:28:50.121Z,5.15
2019-01-24T00:31:19.666Z,5.16
2019-01-24T00:33:49.122Z,5.22
2019-01-24T00:36:18.560Z,5.22
2019-01-24T00:38:48.189Z,5.22
2019-01-24T00:41:17.702Z,5.26
2019-01-24T00:43:47.114Z,5.25
2019-01-24T00:46:16.576Z,5.22
2019-01-24T00:48:46.081Z,5.22
2019-01-24T00:51:15.596Z,5.29
2019-01-24T00:53:45.043Z,5.23
2019-01-24T00:56:14.552Z,5.25
2019-01-24T00:58:44.065Z,5.29
2019-01-24T01:01:13.550Z,5.32
2019-01-24T01:03:43.073Z,5.29
2019-01-24T01:06:12.590Z,5.21
2019-01-24T01:08:42.061Z,5.32
2019-01-24T01:11:11.590Z,5.32
2019-01-24T01:13:41.191Z,5.31
2019-01-24T01:16:10.764Z,5.34
2019-01-24T01:18:40.164Z,5.30
2019-01-24T01:21:09.692Z,5.22
2019-01-24T01:23:39.258Z,5.27
2019-01-24T01:26:08.774Z,5.27
2019-01-24T01:28:38.527Z,5.32
2019-01-24T01:31:08.286Z,5.28
2019-01-24T01:33:37.980Z,5.29
2019-01-24T01:36:07.395Z,5.25
2019-01-24T01:38:37.206Z,5.29
2019-01-24T01:41:06.824Z,5.33
2019-01-24T01:43:36.210Z,5.34
2019-01-24T01:46:05.857Z,5.36
2019-01-24T01:48:35.398Z,5.36
2019-01-24T01:51:04.990Z,5.31
2019-01-24T01:53:34.449Z,5.36
2019-01-24T01:56:03.975Z,5.38
2019-01-24T01:58:33.503Z,5.37
2019-01-24T02:01:03.034Z,5.36
2019-01-24T02:03:32.425Z,5.33
2019-01-24T02:06:01.840Z,5.27
2019-01-24T02:08:31.375Z,5.28
2019-01-24T02:11:00.893Z,5.32
2019-01-24T02:13:30.301Z,5.24
2019-01-24T02:16:00.098Z,5.25
2019-01-24T02:18:29.483Z,5.27
2019-01-24T02:20:58.885Z,5.19
2019-01-24T02:23:28.418Z,5.32
2019-01-24T02:25:57.941Z,5.36
2019-01-24T02:28:27.369Z,5.42
2019-01-24T02:30:56.794Z,5.33
2019-01-24T02:33:26.396Z,5.32
2019-01-24T02:35:55.889Z,5.18
2019-01-24T02:38:25.489Z,5.20
2019-01-24T02:40:54.874Z,5.16
2019-01-24T02:43:24.366Z,5.26
2019-01-24T02:45:54.053Z,5.27
2019-01-24T02:48:23.837Z,5.09
2019-01-24T02:50:53.239Z,5.11
2019-01-24T02:53:22.723Z,5.38
2019-01-24T02:55:52.350Z,5.41
2019-01-24T02:58:21.846Z,5.35
2019-01-24T03:00:51.372Z,5.38
2019-01-24T03:03:20.814Z,5.45
2019-01-24T03:05:50.410Z,5.47
2019-01-24T03:08:21.860Z,5.29
2019-01-24T03:10:51.446Z,5.34
2019-01-24T03:13:20.838Z,5.19
2019-01-24T03:15:50.781Z,5.19
2019-01-24T03:18:20.322Z,5.14
2019-01-24T03:20:49.850Z,5.13
2019-01-24T03:23:19.295Z,5.22
2019-01-24T03:25:48.717Z,5.22
2019-01-24T03:28:18.237Z,5.21
2019-01-24T03:30:47.858Z,5.29
2019-01-24T03:33:17.299Z,5.46
2019-01-24T03:35:46.824Z,5.54
2019-01-24T03:38:16.290Z,5.65
2019-01-24T03:40:45.721Z,5.71
2019-01-24T03:43:15.253Z,5.80
2019-01-24T03:45:44.795Z,5.91
2019-01-24T03:48:14.214Z,6.00
2019-01-24T03:50:43.613Z,6.06
2019-01-24T03:53:13.159Z,6.14
2019-01-24T03:55:42.642Z,6.17
2019-01-24T03:58:12.081Z,6.15
2019-01-24T04:00:41.657Z,6.16
2019-01-24T04:03:11.172Z,6.23
2019-01-24T04:05:40.767Z,6.24
2019-01-24T04:08:10.221Z,6.30
2019-01-24T04:10:39.659Z,6.37
2019-01-24T04:13:09.258Z,6.47
2019-01-24T04:15:38.784Z,6.43
2019-01-24T04:18:08.699Z,6.61
2019-01-24T04:20:38.131Z,6.73
2019-01-24T04:23:07.746Z,6.82
2019-01-24T04:25:37.227Z,6.88
2019-01-24T04:28:06.634Z,6.99
2019-01-24T04:30:36.213Z,7.07
2019-01-24T04:33:05.713Z,7.17
2019-01-24T04:35:35.208Z,7.22
2019-01-24T04:38:04.811Z,7.29
2019-01-24T04:40:34.296Z,7.31
2019-01-24T04:43:03.797Z,7.40
2019-01-24T04:45:33.335Z,7.42
2019-01-24T04:48:02.776Z,7.43
2019-01-24T04:50:32.159Z,7.47
2019-01-24T04:53:01.739Z,7.49
2019-01-24T04:55:31.198Z,7.42
2019-01-24T04:58:00.790Z,7.49
2019-01-24T05:00:31.699Z,7.46
2019-01-24T05:03:01.105Z,7.47
2019-01-24T05:05:30.528Z,7.52
2019-01-24T05:08:00.248Z,7.56
2019-01-24T05:10:29.742Z,7.54
2019-01-24T05:12:59.188Z,7.49
2019-01-24T05:15:28.658Z,7.54
2019-01-24T05:17:58.193Z,7.50
2019-01-24T05:20:27.695Z,7.50
2019-01-24T05:22:57.166Z,7.52
2019-01-24T05:25:26.573Z,7.57
2019-01-24T05:27:56.088Z,7.54
2019-01-24T05:30:27.983Z,7.65
2019-01-24T05:32:57.445Z,7.62
2019-01-24T05:35:34.451Z,7.56
2019-01-24T05:37:58.822Z,7.60
2019-01-24T05:40:28.243Z,7.56
2019-01-24T05:42:57.766Z,7.60
2019-01-24T05:45:27.321Z,7.57
2019-01-24T05:47:56.723Z,7.51
2019-01-24T05:50:26.515Z,7.52
2019-01-24T05:52:58.451Z,7.56
2019-01-24T05:55:27.958Z,7.47
2019-01-24T05:57:57.598Z,7.48
2019-01-24T06:00:33.647Z,7.57
2019-01-24T06:03:03.227Z,7.48
2019-01-24T06:05:32.725Z,7.54
2019-01-24T06:08:02.154Z,7.50
2019-01-24T06:10:31.729Z,7.49
2019-01-24T06:13:01.220Z,7.47
2019-01-24T06:15:30.645Z,7.46
2019-01-24T06:18:00.196Z,7.51
2019-01-24T06:20:29.748Z,7.53
2019-01-24T06:22:59.165Z,7.54
2019-01-24T06:25:28.762Z,7.50
2019-01-24T06:27:58.243Z,7.58
2019-01-24T06:30:27.727Z,7.66
2019-01-24T06:32:57.323Z,7.70
2019-01-24T06:35:26.728Z,7.82
2019-01-24T06:37:56.232Z,7.86
2019-01-24T06:40:25.741Z,7.97
2019-01-24T06:42:55.125Z,8.04
2019-01-24T06:45:24.547Z,8.13
2019-01-24T06:47:54.291Z,8.23
2019-01-24T06:50:23.769Z,8.29
2019-01-24T06:52:53.249Z,8.32
2019-01-24T06:55:25.399Z,8.36
2019-01-24T06:57:54.919Z,8.32
2019-01-24T07:00:24.327Z,8.39
2019-01-24T07:02:53.850Z,8.45
2019-01-24T07:05:23.324Z,8.47
2019-01-24T07:07:52.720Z,8.54
2019-01-24T07:10:22.902Z,8.62
2019-01-24T07:12:52.404Z,8.69
2019-01-24T07:15:23.138Z,8.63
2019-01-24T07:17:52.969Z,8.84
2019-01-24T07:20:22.479Z,8.90
2019-01-24T07:22:51.976Z,8.94
2019-01-24T07:25:24.155Z,9.03
2019-01-24T07:27:53.541Z,9.15
2019-01-24T07:30:23.147Z,9.23
2019-01-24T07:32:52.700Z,8.92
2019-01-24T07:35:22.116Z,8.96
2019-01-24T07:37:51.705Z,8.97
2019-01-24T07:40:21.409Z,8.79
2019-01-24T07:42:51.064Z,8.90
2019-01-24T07:45:32.202Z,9.13
2019-01-24T07:48:01.710Z,9.12
2019-01-24T07:50:31.189Z,8.96
2019-01-24T07:53:00.778Z,9.18
2019-01-24T07:55:30.183Z,9.04
2019-01-24T07:57:59.714Z,9.15
2019-01-24T08:00:29.619Z,9.13
2019-01-24T08:02:59.122Z,9.07
2019-01-24T08:05:28.901Z,9.03
2019-01-24T08:07:58.639Z,8.88
2019-01-24T08:10:28.324Z,8.99
2019-01-24T08:12:57.792Z,9.02
2019-01-24T08:15:27.466Z,9.05
2019-01-24T08:17:56.874Z,9.02
2019-01-24T08:20:27.503Z,8.96
2019-01-24T08:22:57.029Z,8.99
2019-01-24T08:25:26.489Z,9.11
2019-01-24T08:27:55.900Z,9.22
2019-01-24T08:30:33.440Z,8.96
2019-01-24T08:33:03.035Z,8.78
2019-01-24T08:35:33.027Z,8.56
2019-01-24T08:38:02.745Z,8.38
2019-01-24T08:40:32.098Z,8.27
2019-01-24T08:43:01.606Z,8.27
2019-01-24T08:45:31.124Z,8.15
2019-01-24T08:48:00.530Z,8.13
2019-01-24T08:50:29.942Z,8.09
2019-01-24T08:52:59.493Z,8.06
2019-01-24T08:55:31.420Z,8.04
2019-01-24T08:58:01.060Z,8.06
2019-01-24T09:00:30.719Z,8.05
2019-01-24T09:03:22.886Z,8.03
2019-01-24T09:20:14.930Z,7.83
2019-01-24T09:22:44.387Z,7.78
2019-01-24T09:25:14.091Z,7.81
2019-01-24T09:27:43.931Z,7.80
2019-01-24T09:30:19.069Z,7.73
2019-01-24T09:32:48.533Z,7.81
2019-01-24T09:35:18.175Z,7.83
2019-01-24T09:37:47.656Z,7.90
2019-01-24T09:40:17.571Z,7.93
2019-01-24T09:42:46.995Z,7.94
2019-01-24T09:45:22.070Z,7.98
2019-01-24T09:47:52.505Z,8.03
2019-01-24T09:50:23.293Z,8.01
2019-01-24T09:52:52.730Z,8.00
2019-01-24T09:55:22.367Z,8.01
2019-01-24T09:57:52.169Z,8.08
2019-01-24T10:00:27.114Z,8.10
2019-01-24T10:02:56.748Z,8.17
2019-01-24T10:05:26.232Z,8.24
2019-01-24T10:07:56.007Z,8.30
2019-01-24T10:10:25.865Z,8.33
2019-01-24T10:12:56.142Z,8.37
2019-01-24T10:15:26.131Z,8.45
2019-01-24T10:17:55.640Z,8.52
2019-01-24T10:20:26.196Z,8.58
2019-01-24T10:22:56.036Z,8.62
2019-01-24T10:25:31.112Z,8.64
2019-01-24T10:28:00.718Z,8.73
2019-01-24T10:30:30.410Z,8.84
2019-01-24T10:32:59.999Z,8.89
2019-01-24T10:35:29.444Z,8.93
2019-01-24T10:37:58.854Z,9.04
2019-01-24T10:40:30.436Z,9.15
2019-01-24T10:43:00.062Z,9.17
2019-01-24T10:45:29.473Z,9.20
2019-01-24T10:47:58.887Z,9.18
2019-01-24T10:50:28.860Z,9.28
2019-01-24T10:52:58.637Z,9.25
2019-01-24T10:55:29.340Z,9.28
2019-01-24T10:58:03.424Z,9.49
2019-01-24T11:00:38.980Z,9.68
2019-01-24T11:03:11.298Z,9.79
2019-01-24T11:05:40.800Z,9.89
2019-01-24T11:08:10.296Z,9.94
2019-01-24T11:10:39.880Z,9.99
2019-01-24T11:13:09.281Z,10.00
2019-01-24T11:15:38.801Z,9.97
2019-01-24T11:18:09.061Z,9.98
2019-01-24T11:20:38.464Z,10.02
2019-01-24T11:23:08.007Z,10.07
2019-01-24T11:25:37.597Z,10.13
2019-01-24T11:28:07.290Z,10.20
2019-01-24T11:30:36.877Z,10.23
2019-01-24T11:33:07.717Z,10.32
2019-01-24T11:35:37.860Z,10.33
2019-01-24T11:38:07.562Z,10.37
2019-01-24T11:40:37.135Z,10.35
2019-01-24T11:43:07.441Z,10.33
2019-01-24T11:45:39.554Z,10.25
2019-01-24T11:48:09.005Z,10.20
2019-01-24T11:50:38.491Z,10.19
2019-01-24T11:53:07.958Z,10.03
2019-01-24T11:55:37.553Z,10.11
2019-01-24T11:58:07.703Z,10.28
2019-01-24T12:00:52.361Z,10.42
2019-01-24T12:03:21.851Z,10.55
2019-01-24T12:05:51.298Z,10.69
2019-01-24T12:08:20.874Z,10.79
2019-01-24T12:10:50.345Z,10.82
2019-01-24T12:13:19.824Z,10.79
2019-01-24T12:15:49.431Z,10.73
2019-01-24T12:18:18.846Z,10.72
2019-01-24T12:20:48.314Z,10.72
2019-01-24T12:23:17.764Z,10.83
2019-01-24T12:25:47.253Z,10.90
2019-01-24T12:28:16.728Z,10.94
2019-01-24T12:30:46.169Z,11.06
2019-01-24T12:33:15.579Z,11.08
2019-01-24T12:35:45.177Z,11.13
2019-01-24T12:38:14.971Z,11.18
2019-01-24T12:40:44.362Z,11.22
2019-01-24T12:43:13.793Z,11.29
2019-01-24T12:45:43.480Z,11.43
2019-01-24T12:48:12.967Z,11.49
2019-01-24T12:50:42.346Z,11.46
2019-01-24T12:53:11.938Z,11.44
2019-01-24T12:55:41.454Z,11.43
2019-01-24T12:58:10.942Z,11.43
2019-01-24T13:00:40.740Z,11.38
2019-01-24T13:03:10.395Z,11.30
2019-01-24T13:05:39.788Z,11.22
2019-01-24T13:08:09.386Z,11.18
2019-01-24T13:10:38.890Z,11.17
2019-01-24T13:13:08.402Z,11.15
2019-01-24T13:15:37.823Z,11.14
2019-01-24T13:18:07.527Z,11.08
2019-01-24T13:20:37.028Z,11.05
2019-01-24T13:23:06.781Z,11.08
2019-01-24T13:25:36.339Z,11.11
2019-01-24T13:28:06.407Z,10.94
2019-01-24T13:30:36.321Z,11.08
2019-01-24T13:33:07.384Z,11.07
2019-01-24T13:35:37.068Z,10.99
2019-01-24T13:38:07.405Z,10.92
2019-01-24T13:40:37.128Z,10.88
2019-01-24T13:43:07.620Z,10.80
2019-01-24T13:45:41.622Z,10.78
2019-01-24T13:48:11.211Z,10.74
2019-01-24T13:50:40.609Z,10.67
2019-01-24T13:53:10.170Z,10.60
2019-01-24T13:55:39.745Z,10.56
2019-01-24T13:58:09.713Z,10.57
2019-01-24T14:00:40.754Z,10.56
2019-01-24T14:03:53.993Z,10.61
2019-01-24T14:06:23.546Z,10.64
2019-01-24T14:08:53.100Z,10.72
2019-01-24T14:11:22.487Z,10.75
2019-01-24T14:13:52.077Z,10.70
2019-01-24T14:16:21.603Z,10.69
2019-01-24T14:18:51.144Z,10.76
2019-01-24T14:21:20.743Z,10.82
2019-01-24T14:23:50.232Z,10.84
2019-01-24T14:26:19.652Z,10.85
2019-01-24T14:28:49.115Z,10.90
2019-01-24T14:31:18.693Z,10.88
2019-01-24T14:33:48.191Z,10.84
2019-01-24T14:36:17.645Z,10.81
2019-01-24T14:38:47.044Z,10.79
2019-01-24T14:41:16.515Z,10.77
2019-01-24T14:43:46.008Z,10.73
2019-01-24T14:46:15.399Z,10.68
2019-01-24T14:48:44.804Z,10.61
2019-01-24T14:51:14.345Z,10.55
2019-01-24T14:53:43.863Z,10.48
2019-01-24T14:56:13.280Z,10.45
2019-01-24T14:58:43.954Z,10.41
2019-01-24T15:01:19.540Z,10.38
2019-01-24T15:03:49.037Z,10.36
2019-01-24T15:06:18.426Z,10.36
2019-01-24T15:08:47.837Z,10.31
2019-01-24T15:11:17.842Z,10.28
2019-01-24T15:13:47.315Z,10.24
2019-01-24T15:16:16.951Z,10.21
2019-01-24T15:18:46.411Z,10.13
2019-01-24T15:21:16.014Z,10.03
2019-01-24T15:23:45.494Z,9.99
2019-01-24T15:26:15.177Z,9.95
2019-01-24T15:28:44.574Z,9.99
2019-01-24T15:31:14.050Z,9.96
2019-01-24T15:33:43.571Z,9.93
2019-01-24T15:36:13.062Z,9.90
2019-01-24T15:38:42.534Z,9.91
2019-01-24T15:41:12.775Z,9.95
2019-01-24T15:43:42.186Z,9.90
2019-01-24T15:46:11.666Z,9.92
2019-01-24T15:48:42.837Z,9.98
2019-01-24T15:51:12.639Z,9.95
2019-01-24T15:53:42.052Z,9.88
2019-01-24T15:56:11.595Z,9.89
2019-01-24T15:58:41.048Z,9.88
2019-01-24T16:01:10.459Z,9.83
2019-01-24T16:03:40.134Z,9.80
2019-01-24T16:06:09.623Z,9.79
2019-01-24T16:08:39.117Z,9.73
2019-01-24T16:11:08.570Z,9.72
2019-01-24T16:13:37.986Z,9.73
2019-01-24T16:16:07.595Z,9.69
2019-01-24T16:18:37.315Z,9.74
2019-01-24T16:21:06.741Z,9.76
2019-01-24T16:23:36.232Z,9.73
2019-01-24T16:26:06.085Z,9.69
2019-01-24T16:28:35.510Z,9.65
2019-01-24T16:31:05.086Z,9.60
2019-01-24T16:33:34.786Z,9.62
2019-01-24T16:36:04.580Z,9.63
2019-01-24T16:38:33.974Z,9.66
2019-01-24T16:41:03.521Z,9.62
2019-01-24T16:43:33.006Z,9.64
2019-01-24T16:46:02.411Z,9.65
2019-01-24T16:48:32.016Z,9.67
2019-01-24T16:51:01.517Z,9.66
2019-01-24T16:53:31.017Z,9.65
2019-01-24T16:56:00.443Z,9.71
2019-01-24T16:58:29.862Z,9.55
2019-01-24T17:01:13.570Z,9.55
2019-01-24T17:03:42.989Z,9.61
2019-01-24T17:06:12.483Z,9.63
2019-01-24T17:08:42.104Z,9.58
2019-01-24T17:11:11.508Z,9.54
2019-01-24T17:13:40.911Z,9.49
2019-01-24T17:16:10.631Z,9.47
2019-01-24T17:18:40.120Z,9.48
2019-01-24T17:21:09.512Z,9.49
2019-01-24T17:23:38.978Z,9.56
2019-01-24T17:26:08.511Z,9.53
2019-01-24T17:28:38.006Z,9.49
2019-01-24T17:31:07.611Z,9.58
2019-01-24T17:33:37.022Z,9.52
2019-01-24T17:36:06.640Z,9.52
2019-01-24T17:38:36.194Z,9.56
2019-01-24T17:41:06.049Z,9.56
2019-01-24T17:43:35.484Z,9.50
2019-01-24T17:46:10.132Z,9.50
2019-01-24T17:48:39.596Z,9.49
2019-01-24T17:51:09.203Z,9.43
2019-01-24T17:53:38.642Z,9.42
2019-01-24T17:56:08.230Z,9.47
2019-01-24T17:58:37.917Z,9.52
2019-01-24T18:01:07.437Z,9.57
2019-01-24T18:03:38.822Z,9.55
2019-01-24T18:06:08.556Z,9.54
2019-01-24T18:08:38.088Z,9.57
2019-01-24T18:11:07.490Z,9.46
2019-01-24T18:13:36.943Z,9.42
2019-01-24T18:16:06.668Z,9.41
2019-01-24T18:18:36.191Z,9.53
2019-01-24T18:21:05.664Z,9.55
2019-01-24T18:23:35.158Z,9.53
2019-01-24T18:26:04.830Z,9.55
2019-01-24T18:28:34.335Z,9.53
2019-01-24T18:31:04.607Z,9.44
2019-01-24T18:33:34.093Z,9.38
2019-01-24T18:36:03.560Z,9.37
2019-01-24T18:38:38.437Z,9.36
2019-01-24T18:41:08.706Z,9.34
2019-01-24T18:43:37.471Z,9.48
2019-01-24T18:46:07.099Z,9.47
2019-01-24T18:48:36.487Z,9.44
2019-01-24T18:51:06.100Z,9.34
2019-01-24T18:53:35.686Z,9.38
2019-01-24T18:56:05.837Z,9.39
2019-01-24T18:58:35.257Z,9.41
2019-01-24T19:01:04.936Z,9.44
2019-01-24T19:03:34.406Z,9.39
2019-01-24T19:06:03.952Z,9.18
2019-01-24T19:08:33.613Z,9.22
2019-01-24T19:11:03.009Z,9.25
2019-01-24T19:13:34.088Z,9.14
2019-01-24T19:16:03.688Z,9.09
2019-01-24T19:18:33.363Z,9.15
2019-01-24T19:21:02.799Z,9.14
2019-01-24T19:23:32.328Z,9.03
2019-01-24T19:26:01.835Z,9.15
2019-01-24T19:28:31.519Z,9.15
2019-01-24T19:31:00.935Z,9.12
2019-01-24T19:33:30.345Z,9.18
2019-01-24T19:36:00.377Z,9.06
2019-01-24T19:38:30.138Z,8.99
2019-01-24T19:40:59.544Z,9.04
2019-01-24T19:43:30.019Z,8.98
2019-01-24T19:45:59.439Z,9.01
2019-01-24T19:48:28.847Z,9.09
2019-01-24T19:50:58.404Z,8.96
2019-01-24T19:53:27.917Z,8.98
2019-01-24T19:55:57.349Z,8.92
2019-01-24T19:58:26.823Z,8.95
2019-01-24T20:00:56.324Z,9.05
2019-01-24T20:03:25.831Z,9.06
2019-01-24T20:05:55.293Z,9.05
2019-01-24T20:08:24.688Z,9.09
2019-01-24T20:10:54.216Z,9.08
2019-01-24T20:13:23.763Z,9.17
2019-01-24T20:15:53.155Z,9.11
2019-01-24T20:18:22.569Z,9.13
2019-01-24T20:20:52.453Z,9.11
2019-01-24T20:23:21.943Z,8.91
2019-01-24T20:25:51.358Z,8.83
2019-01-24T20:28:20.783Z,8.82
2019-01-24T20:30:50.290Z,8.92
2019-01-24T20:33:19.788Z,8.95
2019-01-24T20:35:55.366Z,9.07
2019-01-24T20:38:24.829Z,9.03
2019-01-24T20:40:54.324Z,9.06
2019-01-24T20:43:24.066Z,9.10
2019-01-24T20:45:53.605Z,9.14
2019-01-24T20:48:23.019Z,9.10
2019-01-24T20:50:52.558Z,9.09
2019-01-24T20:53:22.184Z,9.11
2019-01-24T20:55:51.604Z,9.17
2019-01-24T20:58:21.289Z,9.09
2019-01-24T21:00:50.816Z,9.05
2019-01-24T21:03:20.397Z,9.07
2019-01-24T21:05:49.947Z,9.03
2019-01-24T21:08:19.461Z,9.00
2019-01-24T21:10:48.858Z,9.03
2019-01-24T21:13:18.811Z,9.02
2019-01-24T21:15:48.483Z,8.95
2019-01-24T21:18:17.980Z,8.97
2019-01-24T21:20:47.574Z,9.06
2019-01-24T21:23:16.987Z,9.06
2019-01-24T21:25:46.494Z,9.11
2019-01-24T21:28:16.026Z,9.15
2019-01-24T21:30:45.421Z,9.11
2019-01-24T21:33:15.039Z,9.03
2019-01-24T21:35:44.740Z,9.00
2019-01-24T21:38:14.281Z,9.10
2019-01-24T21:40:43.711Z,9.03
2019-01-24T21:43:13.271Z,8.93
2019-01-24T21:45:42.657Z,8.89
2019-01-24T21:48:12.050Z,8.83
2019-01-24T21:50:41.599Z,8.77
2019-01-24T21:53:11.209Z,8.75
2019-01-24T21:55:40.637Z,8.73
2019-01-24T21:58:10.381Z,8.68
2019-01-24T22:00:40.029Z,8.72
2019-01-24T22:03:10.625Z,8.68
2019-01-24T22:05:40.245Z,8.67
2019-01-24T22:08:09.759Z,8.64
2019-01-24T22:10:39.378Z,8.66
2019-01-24T22:13:08.901Z,8.65
2019-01-24T22:15:38.284Z,8.61
2019-01-24T22:18:08.062Z,8.64
2019-01-24T22:20:37.598Z,8.63
2019-01-24T22:23:07.337Z,8.59
2019-01-24T22:25:37.404Z,8.56
2019-01-24T22:28:07.804Z,8.58
2019-01-24T22:30:42.491Z,8.66
2019-01-24T22:33:12.057Z,8.69
2019-01-24T22:35:41.583Z,8.63
2019-01-24T22:38:11.084Z,8.62
2019-01-24T22:40:40.518Z,8.68
2019-01-24T22:43:09.925Z,8.67
2019-01-24T22:45:39.534Z,8.69
2019-01-24T22:48:09.176Z,8.65
2019-01-24T22:50:38.563Z,8.61
2019-01-24T22:53:08.083Z,8.47
2019-01-24T22:55:37.622Z,8.37
2019-01-24T22:58:08.044Z,8.50
2019-01-24T23:01:14.756Z,8.53
2019-01-24T23:03:46.746Z,8.54
2019-01-24T23:06:16.859Z,8.55
2019-01-24T23:08:46.268Z,8.56
2019-01-24T23:11:15.876Z,8.43
2019-01-24T23:13:45.556Z,8.46
2019-01-24T23:16:14.950Z,8.44
2019-01-24T23:18:44.383Z,8.47
2019-01-24T23:21:14.135Z,8.49
2019-01-24T23:23:43.639Z,8.49
2019-01-24T23:26:13.051Z,8.35
2019-01-24T23:28:42.512Z,8.21
2019-01-24T23:31:12.017Z,8.27
2019-01-24T23:33:41.489Z,8.31
2019-01-24T23:36:11.038Z,8.30
2019-01-24T23:38:40.464Z,8.28
2019-01-24T23:41:10.023Z,8.25
2019-01-24T23:43:40.736Z,8.06
2019-01-24T23:46:10.406Z,8.02
2019-01-24T23:48:39.899Z,7.96
2019-01-24T23:51:09.357Z,7.90
2019-01-24T23:53:38.810Z,8.09
2019-01-24T23:56:08.411Z,8.10
2019-01-24T23:58:37.970Z,8.24
